sensor_id;sensor_type;location;lat;lon;timestamp;temperature;humidity
27506;DHT22;14939;43.596;1.320;2023-04-15T00:00:27;10.10;99.90
27506;DHT22;14939;43.596;1.320;2023-04-15T00:02:53;10.10;99.90
27506;DHT22;14939;43.596;1.320;2023-04-15T00:05:20;10.10;99.90
27506;DHT22;14939;43.596;1.320;2023-04-15T00:07:45;10.10;99.90
27506;DHT22;14939;43.596;1.320;2023-04-15T00:10:12;10.20;99.90
27506;DHT22;14939;43.596;1.320;2023-04-15T00:12:39;10.20;99.90
27506;DHT22;14939;43.596;1.320;2023-04-15T00:15:06;10.20;99.90
27506;DHT22;14939;43.596;1.320;2023-04-15T00:17:33;10.20;99.90
27506;DHT22;14939;43.596;1.320;2023-04-15T00:19:59;10.20;99.90
27506;DHT22;14939;43.596;1.320;2023-04-15T00:22:26;10.20;99.90
27506;DHT22;14939;43.596;1.320;2023-04-15T00:24:52;10.30;99.90
27506;DHT22;14939;43.596;1.320;2023-04-15T00:27:18;10.40;99.90
27506;DHT22;14939;43.596;1.320;2023-04-15T00:29:44;10.40;99.90
27506;DHT22;14939;43.596;1.320;2023-04-15T00:32:10;10.40;99.90
27506;DHT22;14939;43.596;1.320;2023-04-15T00:34:36;10.40;99.90
27506;DHT22;14939;43.596;1.320;2023-04-15T00:37:02;10.50;99.90
27506;DHT22;14939;43.596;1.320;2023-04-15T00:39:27;10.50;99.90
27506;DHT22;14939;43.596;1.320;2023-04-15T00:41:54;10.40;99.90
27506;DHT22;14939;43.596;1.320;2023-04-15T00:44:20;10.20;99.90
27506;DHT22;14939;43.596;1.320;2023-04-15T00:46:46;10.10;99.90
27506;DHT22;14939;43.596;1.320;2023-04-15T00:49:13;10.00;99.90
27506;DHT22;14939;43.596;1.320;2023-04-15T00:51:38;10.00;99.90
27506;DHT22;14939;43.596;1.320;2023-04-15T00:54:05;10.10;99.90
27506;DHT22;14939;43.596;1.320;2023-04-15T00:56:37;10.00;99.90
27506;DHT22;14939;43.596;1.320;2023-04-15T00:59:04;10.10;99.90
27506;DHT22;14939;43.596;1.320;2023-04-15T01:01:32;10.00;99.90
27506;DHT22;14939;43.596;1.320;2023-04-15T01:03:58;10.10;99.90
27506;DHT22;14939;43.596;1.320;2023-04-15T01:06:24;10.10;99.90
27506;DHT22;14939;43.596;1.320;2023-04-15T01:08:50;10.00;99.90
27506;DHT22;14939;43.596;1.320;2023-04-15T01:11:16;10.00;99.90
27506;DHT22;14939;43.596;1.320;2023-04-15T01:13:43;10.10;99.90
27506;DHT22;14939;43.596;1.320;2023-04-15T01:16:10;10.20;99.90
27506;DHT22;14939;43.596;1.320;2023-04-15T01:18:36;10.20;99.90
27506;DHT22;14939;43.596;1.320;2023-04-15T01:21:04;10.20;99.90
27506;DHT22;14939;43.596;1.320;2023-04-15T01:23:31;10.20;99.90
27506;DHT22;14939;43.596;1.320;2023-04-15T01:25:57;10.20;99.90
27506;DHT22;14939;43.596;1.320;2023-04-15T01:28:23;10.40;99.90
27506;DHT22;14939;43.596;1.320;2023-04-15T01:30:50;10.50;99.90
27506;DHT22;14939;43.596;1.320;2023-04-15T01:33:30;10.60;99.90
27506;DHT22;14939;43.596;1.320;2023-04-15T01:35:56;10.60;99.90
27506;DHT22;14939;43.596;1.320;2023-04-15T01:38:21;10.10;99.90
27506;DHT22;14939;43.596;1.320;2023-04-15T01:40:47;9.80;99.90
27506;DHT22;14939;43.596;1.320;2023-04-15T01:43:13;9.70;99.90
27506;DHT22;14939;43.596;1.320;2023-04-15T01:45:39;9.70;99.90
27506;DHT22;14939;43.596;1.320;2023-04-15T01:48:05;9.70;99.90
27506;DHT22;14939;43.596;1.320;2023-04-15T01:50:31;9.70;99.90
27506;DHT22;14939;43.596;1.320;2023-04-15T01:52:57;9.60;99.90
27506;DHT22;14939;43.596;1.320;2023-04-15T01:55:22;9.60;99.90
27506;DHT22;14939;43.596;1.320;2023-04-15T01:57:48;9.60;99.90
27506;DHT22;14939;43.596;1.320;2023-04-15T02:00:14;9.60;99.90
27506;DHT22;14939;43.596;1.320;2023-04-15T02:02:40;9.60;99.90
27506;DHT22;14939;43.596;1.320;2023-04-15T02:05:06;9.70;99.90
27506;DHT22;14939;43.596;1.320;2023-04-15T02:07:32;9.70;99.90
27506;DHT22;14939;43.596;1.320;2023-04-15T02:09:58;9.60;99.90
27506;DHT22;14939;43.596;1.320;2023-04-15T02:12:23;9.70;99.90
27506;DHT22;14939;43.596;1.320;2023-04-15T02:14:49;9.70;99.90
27506;DHT22;14939;43.596;1.320;2023-04-15T02:17:15;9.70;99.90
27506;DHT22;14939;43.596;1.320;2023-04-15T02:19:41;9.70;99.90
27506;DHT22;14939;43.596;1.320;2023-04-15T02:22:07;9.60;99.90
27506;DHT22;14939;43.596;1.320;2023-04-15T02:24:33;9.60;99.90
27506;DHT22;14939;43.596;1.320;2023-04-15T02:26:59;9.70;99.90
27506;DHT22;14939;43.596;1.320;2023-04-15T02:29:26;9.60;99.90
27506;DHT22;14939;43.596;1.320;2023-04-15T02:31:52;9.50;99.90
27506;DHT22;14939;43.596;1.320;2023-04-15T02:34:17;9.60;99.90
27506;DHT22;14939;43.596;1.320;2023-04-15T02:36:43;9.50;99.90
27506;DHT22;14939;43.596;1.320;2023-04-15T02:39:09;9.50;99.90
27506;DHT22;14939;43.596;1.320;2023-04-15T02:41:35;9.50;99.90
27506;DHT22;14939;43.596;1.320;2023-04-15T02:44:01;9.60;99.90
27506;DHT22;14939;43.596;1.320;2023-04-15T02:46:26;9.70;99.90
27506;DHT22;14939;43.596;1.320;2023-04-15T02:48:52;9.80;99.90
27506;DHT22;14939;43.596;1.320;2023-04-15T02:51:21;9.90;99.90
27506;DHT22;14939;43.596;1.320;2023-04-15T02:53:48;10.00;99.90
27506;DHT22;14939;43.596;1.320;2023-04-15T02:56:14;10.00;99.90
27506;DHT22;14939;43.596;1.320;2023-04-15T02:58:42;10.10;99.90
27506;DHT22;14939;43.596;1.320;2023-04-15T03:01:08;10.20;99.90
27506;DHT22;14939;43.596;1.320;2023-04-15T03:03:34;10.30;99.90
27506;DHT22;14939;43.596;1.320;2023-04-15T03:05:59;10.30;99.90
27506;DHT22;14939;43.596;1.320;2023-04-15T03:08:25;10.20;99.90
27506;DHT22;14939;43.596;1.320;2023-04-15T03:10:51;10.00;99.90
27506;DHT22;14939;43.596;1.320;2023-04-15T03:13:17;9.80;99.90
27506;DHT22;14939;43.596;1.320;2023-04-15T03:15:45;9.80;99.90
27506;DHT22;14939;43.596;1.320;2023-04-15T03:18:11;9.80;99.90
27506;DHT22;14939;43.596;1.320;2023-04-15T03:20:37;9.80;99.90
27506;DHT22;14939;43.596;1.320;2023-04-15T03:23:03;9.80;99.90
27506;DHT22;14939;43.596;1.320;2023-04-15T03:25:28;9.80;99.90
27506;DHT22;14939;43.596;1.320;2023-04-15T03:27:54;9.90;99.90
27506;DHT22;14939;43.596;1.320;2023-04-15T03:30:20;10.00;99.90
27506;DHT22;14939;43.596;1.320;2023-04-15T03:32:45;10.10;99.90
27506;DHT22;14939;43.596;1.320;2023-04-15T03:35:11;10.00;99.90
27506;DHT22;14939;43.596;1.320;2023-04-15T03:37:37;10.00;99.90
27506;DHT22;14939;43.596;1.320;2023-04-15T03:40:03;10.00;99.90
27506;DHT22;14939;43.596;1.320;2023-04-15T03:42:28;10.00;99.90
27506;DHT22;14939;43.596;1.320;2023-04-15T03:44:54;10.00;99.90
27506;DHT22;14939;43.596;1.320;2023-04-15T03:47:20;10.00;99.90
27506;DHT22;14939;43.596;1.320;2023-04-15T03:49:46;9.90;99.90
27506;DHT22;14939;43.596;1.320;2023-04-15T03:52:11;9.80;99.90
27506;DHT22;14939;43.596;1.320;2023-04-15T03:54:37;9.70;99.90
27506;DHT22;14939;43.596;1.320;2023-04-15T03:57:02;9.90;99.90
27506;DHT22;14939;43.596;1.320;2023-04-15T03:59:28;10.00;99.90
27506;DHT22;14939;43.596;1.320;2023-04-15T04:01:54;10.00;99.90
27506;DHT22;14939;43.596;1.320;2023-04-15T04:04:19;10.00;99.90
27506;DHT22;14939;43.596;1.320;2023-04-15T04:06:45;10.00;99.90
27506;DHT22;14939;43.596;1.320;2023-04-15T04:09:11;10.00;99.90
27506;DHT22;14939;43.596;1.320;2023-04-15T04:11:36;10.00;99.90
27506;DHT22;14939;43.596;1.320;2023-04-15T04:14:02;10.00;99.90
27506;DHT22;14939;43.596;1.320;2023-04-15T04:16:28;10.00;99.90
27506;DHT22;14939;43.596;1.320;2023-04-15T04:18:53;9.90;99.90
27506;DHT22;14939;43.596;1.320;2023-04-15T04:21:19;9.80;99.90
27506;DHT22;14939;43.596;1.320;2023-04-15T04:23:45;9.70;99.90
27506;DHT22;14939;43.596;1.320;2023-04-15T04:26:11;9.70;99.90
27506;DHT22;14939;43.596;1.320;2023-04-15T04:28:37;9.60;99.90
27506;DHT22;14939;43.596;1.320;2023-04-15T04:31:05;9.70;99.90
27506;DHT22;14939;43.596;1.320;2023-04-15T04:33:32;9.70;99.90
27506;DHT22;14939;43.596;1.320;2023-04-15T04:35:58;9.80;99.90
27506;DHT22;14939;43.596;1.320;2023-04-15T04:38:24;9.80;99.90
27506;DHT22;14939;43.596;1.320;2023-04-15T04:40:49;9.80;99.90
27506;DHT22;14939;43.596;1.320;2023-04-15T04:43:15;9.90;99.90
27506;DHT22;14939;43.596;1.320;2023-04-15T04:45:41;9.90;99.90
27506;DHT22;14939;43.596;1.320;2023-04-15T04:48:07;9.90;99.90
27506;DHT22;14939;43.596;1.320;2023-04-15T04:50:34;9.90;99.90
27506;DHT22;14939;43.596;1.320;2023-04-15T04:53:01;9.80;99.90
27506;DHT22;14939;43.596;1.320;2023-04-15T04:55:27;9.80;99.90
27506;DHT22;14939;43.596;1.320;2023-04-15T04:57:52;9.80;99.90
27506;DHT22;14939;43.596;1.320;2023-04-15T05:00:18;9.70;99.90
27506;DHT22;14939;43.596;1.320;2023-04-15T05:02:44;9.70;99.90
27506;DHT22;14939;43.596;1.320;2023-04-15T05:05:10;9.80;99.90
27506;DHT22;14939;43.596;1.320;2023-04-15T05:07:37;9.80;99.90
27506;DHT22;14939;43.596;1.320;2023-04-15T05:10:04;9.90;99.90
27506;DHT22;14939;43.596;1.320;2023-04-15T05:12:30;9.90;99.90
27506;DHT22;14939;43.596;1.320;2023-04-15T05:14:56;10.00;99.90
27506;DHT22;14939;43.596;1.320;2023-04-15T05:17:22;10.00;99.90
27506;DHT22;14939;43.596;1.320;2023-04-15T05:19:47;10.00;99.90
27506;DHT22;14939;43.596;1.320;2023-04-15T05:22:13;10.00;99.90
27506;DHT22;14939;43.596;1.320;2023-04-15T05:24:39;10.10;99.90
27506;DHT22;14939;43.596;1.320;2023-04-15T05:27:04;10.20;99.90
27506;DHT22;14939;43.596;1.320;2023-04-15T05:29:30;10.20;99.90
27506;DHT22;14939;43.596;1.320;2023-04-15T05:31:56;10.20;99.90
27506;DHT22;14939;43.596;1.320;2023-04-15T05:34:22;10.10;99.90
27506;DHT22;14939;43.596;1.320;2023-04-15T05:36:47;9.90;99.90
27506;DHT22;14939;43.596;1.320;2023-04-15T05:39:13;9.80;99.90
27506;DHT22;14939;43.596;1.320;2023-04-15T05:41:39;9.70;99.90
27506;DHT22;14939;43.596;1.320;2023-04-15T05:44:04;9.60;99.90
27506;DHT22;14939;43.596;1.320;2023-04-15T05:46:30;9.60;99.90
27506;DHT22;14939;43.596;1.320;2023-04-15T05:48:56;9.60;99.90
27506;DHT22;14939;43.596;1.320;2023-04-15T05:51:21;9.60;99.90
27506;DHT22;14939;43.596;1.320;2023-04-15T05:53:47;9.60;99.90
27506;DHT22;14939;43.596;1.320;2023-04-15T05:56:13;9.80;99.90
27506;DHT22;14939;43.596;1.320;2023-04-15T05:58:38;9.80;99.90
27506;DHT22;14939;43.596;1.320;2023-04-15T06:01:04;9.70;99.90
27506;DHT22;14939;43.596;1.320;2023-04-15T06:03:30;9.70;99.90
27506;DHT22;14939;43.596;1.320;2023-04-15T06:05:55;9.70;99.90
27506;DHT22;14939;43.596;1.320;2023-04-15T06:08:21;9.60;99.90
27506;DHT22;14939;43.596;1.320;2023-04-15T06:10:47;9.60;99.90
27506;DHT22;14939;43.596;1.320;2023-04-15T06:13:13;9.60;99.90
27506;DHT22;14939;43.596;1.320;2023-04-15T06:15:38;9.60;99.90
27506;DHT22;14939;43.596;1.320;2023-04-15T06:18:04;9.60;99.90
27506;DHT22;14939;43.596;1.320;2023-04-15T06:20:29;9.70;99.90
27506;DHT22;14939;43.596;1.320;2023-04-15T06:22:56;9.70;99.90
27506;DHT22;14939;43.596;1.320;2023-04-15T06:25:22;9.70;99.90
27506;DHT22;14939;43.596;1.320;2023-04-15T06:27:48;9.70;99.90
27506;DHT22;14939;43.596;1.320;2023-04-15T06:30:14;9.80;99.90
27506;DHT22;14939;43.596;1.320;2023-04-15T06:32:39;9.80;99.90
27506;DHT22;14939;43.596;1.320;2023-04-15T06:35:05;9.70;99.90
27506;DHT22;14939;43.596;1.320;2023-04-15T06:37:31;9.70;99.90
27506;DHT22;14939;43.596;1.320;2023-04-15T06:39:57;10.10;99.90
27506;DHT22;14939;43.596;1.320;2023-04-15T06:42:23;10.00;99.90
27506;DHT22;14939;43.596;1.320;2023-04-15T06:44:49;9.70;99.90
27506;DHT22;14939;43.596;1.320;2023-04-15T06:47:14;9.70;99.90
27506;DHT22;14939;43.596;1.320;2023-04-15T06:49:40;9.80;99.90
27506;DHT22;14939;43.596;1.320;2023-04-15T06:52:07;9.80;99.90
27506;DHT22;14939;43.596;1.320;2023-04-15T06:54:33;9.80;99.90
27506;DHT22;14939;43.596;1.320;2023-04-15T06:56:59;9.90;99.90
27506;DHT22;14939;43.596;1.320;2023-04-15T06:59:25;9.90;99.90
27506;DHT22;14939;43.596;1.320;2023-04-15T07:01:51;9.90;99.90
27506;DHT22;14939;43.596;1.320;2023-04-15T07:04:17;9.90;99.90
27506;DHT22;14939;43.596;1.320;2023-04-15T07:06:43;10.00;99.90
27506;DHT22;14939;43.596;1.320;2023-04-15T07:09:09;10.00;99.90
27506;DHT22;14939;43.596;1.320;2023-04-15T07:11:35;9.90;99.90
27506;DHT22;14939;43.596;1.320;2023-04-15T07:14:01;9.90;99.90
27506;DHT22;14939;43.596;1.320;2023-04-15T07:16:26;9.90;99.90
27506;DHT22;14939;43.596;1.320;2023-04-15T07:18:52;10.00;99.90
27506;DHT22;14939;43.596;1.320;2023-04-15T07:21:18;10.10;99.90
27506;DHT22;14939;43.596;1.320;2023-04-15T07:23:44;10.10;99.90
27506;DHT22;14939;43.596;1.320;2023-04-15T07:26:09;10.30;99.90
27506;DHT22;14939;43.596;1.320;2023-04-15T07:28:35;10.40;99.90
27506;DHT22;14939;43.596;1.320;2023-04-15T07:31:01;10.30;99.90
27506;DHT22;14939;43.596;1.320;2023-04-15T07:33:27;10.30;99.90
27506;DHT22;14939;43.596;1.320;2023-04-15T07:35:52;10.20;99.90
27506;DHT22;14939;43.596;1.320;2023-04-15T07:38:18;10.30;99.90
27506;DHT22;14939;43.596;1.320;2023-04-15T07:40:45;10.20;99.90
27506;DHT22;14939;43.596;1.320;2023-04-15T07:43:10;10.10;99.90
27506;DHT22;14939;43.596;1.320;2023-04-15T07:45:37;10.10;99.90
27506;DHT22;14939;43.596;1.320;2023-04-15T07:48:03;10.10;99.90
27506;DHT22;14939;43.596;1.320;2023-04-15T07:50:30;10.10;99.90
27506;DHT22;14939;43.596;1.320;2023-04-15T07:52:55;10.00;99.90
27506;DHT22;14939;43.596;1.320;2023-04-15T07:55:22;9.90;99.90
27506;DHT22;14939;43.596;1.320;2023-04-15T07:57:48;10.00;99.90
27506;DHT22;14939;43.596;1.320;2023-04-15T08:00:15;10.10;99.90
27506;DHT22;14939;43.596;1.320;2023-04-15T08:02:41;10.10;99.90
27506;DHT22;14939;43.596;1.320;2023-04-15T08:05:08;10.10;99.90
27506;DHT22;14939;43.596;1.320;2023-04-15T08:07:36;10.10;99.90
27506;DHT22;14939;43.596;1.320;2023-04-15T08:10:03;10.10;99.90
27506;DHT22;14939;43.596;1.320;2023-04-15T08:12:28;10.10;99.90
27506;DHT22;14939;43.596;1.320;2023-04-15T08:14:54;10.40;99.90
27506;DHT22;14939;43.596;1.320;2023-04-15T08:17:21;10.10;99.90
27506;DHT22;14939;43.596;1.320;2023-04-15T08:19:47;10.10;99.90
27506;DHT22;14939;43.596;1.320;2023-04-15T08:22:13;10.20;99.90
27506;DHT22;14939;43.596;1.320;2023-04-15T08:24:39;10.30;99.90
27506;DHT22;14939;43.596;1.320;2023-04-15T08:27:05;10.50;99.90
27506;DHT22;14939;43.596;1.320;2023-04-15T08:29:32;10.40;99.90
27506;DHT22;14939;43.596;1.320;2023-04-15T08:31:59;10.40;99.90
27506;DHT22;14939;43.596;1.320;2023-04-15T08:34:26;10.50;99.90
27506;DHT22;14939;43.596;1.320;2023-04-15T08:36:52;10.70;99.90
27506;DHT22;14939;43.596;1.320;2023-04-15T08:39:17;10.70;99.90
27506;DHT22;14939;43.596;1.320;2023-04-15T08:42:01;10.60;99.90
27506;DHT22;14939;43.596;1.320;2023-04-15T08:44:33;10.60;99.90
27506;DHT22;14939;43.596;1.320;2023-04-15T08:47:03;10.50;99.90
27506;DHT22;14939;43.596;1.320;2023-04-15T08:49:31;10.50;99.90
27506;DHT22;14939;43.596;1.320;2023-04-15T08:51:58;10.60;99.90
27506;DHT22;14939;43.596;1.320;2023-04-15T08:54:25;10.70;99.90
27506;DHT22;14939;43.596;1.320;2023-04-15T08:56:51;10.80;99.90
27506;DHT22;14939;43.596;1.320;2023-04-15T08:59:19;10.90;99.90
27506;DHT22;14939;43.596;1.320;2023-04-15T09:01:47;10.70;99.90
27506;DHT22;14939;43.596;1.320;2023-04-15T09:04:13;10.90;99.90
27506;DHT22;14939;43.596;1.320;2023-04-15T09:06:39;10.70;99.90
27506;DHT22;14939;43.596;1.320;2023-04-15T09:09:06;10.90;99.90
27506;DHT22;14939;43.596;1.320;2023-04-15T09:11:31;10.50;99.90
27506;DHT22;14939;43.596;1.320;2023-04-15T09:13:57;10.70;99.90
27506;DHT22;14939;43.596;1.320;2023-04-15T09:16:23;11.10;99.90
27506;DHT22;14939;43.596;1.320;2023-04-15T09:18:49;11.20;99.90
27506;DHT22;14939;43.596;1.320;2023-04-15T09:21:16;11.20;99.90
27506;DHT22;14939;43.596;1.320;2023-04-15T09:23:59;11.20;99.90
27506;DHT22;14939;43.596;1.320;2023-04-15T09:26:35;11.00;99.90
27506;DHT22;14939;43.596;1.320;2023-04-15T09:29:08;10.90;99.90
27506;DHT22;14939;43.596;1.320;2023-04-15T09:31:34;11.30;99.90
27506;DHT22;14939;43.596;1.320;2023-04-15T09:34:01;11.30;99.90
27506;DHT22;14939;43.596;1.320;2023-04-15T09:36:27;10.90;99.90
27506;DHT22;14939;43.596;1.320;2023-04-15T09:38:58;11.30;99.90
27506;DHT22;14939;43.596;1.320;2023-04-15T09:41:25;11.30;99.90
27506;DHT22;14939;43.596;1.320;2023-04-15T09:43:51;11.30;99.90
27506;DHT22;14939;43.596;1.320;2023-04-15T09:46:17;11.50;99.90
27506;DHT22;14939;43.596;1.320;2023-04-15T09:48:43;11.30;99.90
27506;DHT22;14939;43.596;1.320;2023-04-15T09:51:09;11.40;99.90
27506;DHT22;14939;43.596;1.320;2023-04-15T09:53:35;11.60;99.90
27506;DHT22;14939;43.596;1.320;2023-04-15T09:56:03;11.50;99.90
27506;DHT22;14939;43.596;1.320;2023-04-15T09:58:30;11.50;99.90
27506;DHT22;14939;43.596;1.320;2023-04-15T10:00:57;11.00;99.90
27506;DHT22;14939;43.596;1.320;2023-04-15T10:03:29;11.30;99.90
27506;DHT22;14939;43.596;1.320;2023-04-15T10:05:57;11.10;99.90
27506;DHT22;14939;43.596;1.320;2023-04-15T10:08:26;10.70;99.90
27506;DHT22;14939;43.596;1.320;2023-04-15T10:10:52;11.00;99.90
27506;DHT22;14939;43.596;1.320;2023-04-15T10:13:22;11.50;99.90
27506;DHT22;14939;43.596;1.320;2023-04-15T10:16:11;12.10;99.90
27506;DHT22;14939;43.596;1.320;2023-04-15T10:18:46;12.30;99.90
27506;DHT22;14939;43.596;1.320;2023-04-15T10:21:12;12.60;99.90
27506;DHT22;14939;43.596;1.320;2023-04-15T10:23:45;12.80;99.90
27506;DHT22;14939;43.596;1.320;2023-04-15T10:26:12;13.10;99.90
27506;DHT22;14939;43.596;1.320;2023-04-15T10:28:40;12.70;99.00
27506;DHT22;14939;43.596;1.320;2023-04-15T10:31:06;12.80;99.70
27506;DHT22;14939;43.596;1.320;2023-04-15T10:33:32;12.90;98.30
27506;DHT22;14939;43.596;1.320;2023-04-15T10:35:59;13.00;97.90
27506;DHT22;14939;43.596;1.320;2023-04-15T10:41:22;12.90;95.00
27506;DHT22;14939;43.596;1.320;2023-04-15T10:43:53;13.10;92.70
27506;DHT22;14939;43.596;1.320;2023-04-15T10:46:44;13.10;91.60
27506;DHT22;14939;43.596;1.320;2023-04-15T10:49:14;13.10;90.80
27506;DHT22;14939;43.596;1.320;2023-04-15T10:51:44;13.20;90.90
27506;DHT22;14939;43.596;1.320;2023-04-15T10:54:15;13.50;87.80
27506;DHT22;14939;43.596;1.320;2023-04-15T10:56:43;13.40;84.50
27506;DHT22;14939;43.596;1.320;2023-04-15T10:59:08;13.40;87.20
27506;DHT22;14939;43.596;1.320;2023-04-15T11:01:54;13.60;85.90
27506;DHT22;14939;43.596;1.320;2023-04-15T11:04:56;13.60;88.50
27506;DHT22;14939;43.596;1.320;2023-04-15T11:07:52;13.80;89.00
27506;DHT22;14939;43.596;1.320;2023-04-15T11:15:38;13.10;92.40
27506;DHT22;14939;43.596;1.320;2023-04-15T11:20:43;13.60;82.40
27506;DHT22;14939;43.596;1.320;2023-04-15T11:23:10;13.60;86.10
27506;DHT22;14939;43.596;1.320;2023-04-15T11:25:36;13.80;80.00
27506;DHT22;14939;43.596;1.320;2023-04-15T11:28:02;13.80;78.80
27506;DHT22;14939;43.596;1.320;2023-04-15T11:30:34;14.00;78.90
27506;DHT22;14939;43.596;1.320;2023-04-15T11:33:06;14.10;82.80
27506;DHT22;14939;43.596;1.320;2023-04-15T11:35:33;14.10;81.90
27506;DHT22;14939;43.596;1.320;2023-04-15T11:38:04;14.20;76.30
27506;DHT22;14939;43.596;1.320;2023-04-15T11:40:30;14.50;80.00
27506;DHT22;14939;43.596;1.320;2023-04-15T11:43:10;14.30;76.20
27506;DHT22;14939;43.596;1.320;2023-04-15T11:45:59;13.80;74.10
27506;DHT22;14939;43.596;1.320;2023-04-15T11:48:29;13.80;71.80
27506;DHT22;14939;43.596;1.320;2023-04-15T11:50:55;13.50;71.60
27506;DHT22;14939;43.596;1.320;2023-04-15T11:53:22;13.50;70.90
27506;DHT22;14939;43.596;1.320;2023-04-15T11:55:50;13.60;71.90
27506;DHT22;14939;43.596;1.320;2023-04-15T11:58:22;13.70;68.70
27506;DHT22;14939;43.596;1.320;2023-04-15T12:00:50;13.80;70.10
27506;DHT22;14939;43.596;1.320;2023-04-15T12:03:25;13.80;74.90
27506;DHT22;14939;43.596;1.320;2023-04-15T12:09:02;14.00;71.90
27506;DHT22;14939;43.596;1.320;2023-04-15T12:11:36;14.00;70.00
27506;DHT22;14939;43.596;1.320;2023-04-15T12:14:20;14.40;75.50
27506;DHT22;14939;43.596;1.320;2023-04-15T12:16:50;14.20;69.30
27506;DHT22;14939;43.596;1.320;2023-04-15T12:21:48;14.70;63.00
27506;DHT22;14939;43.596;1.320;2023-04-15T12:24:14;14.70;67.20
27506;DHT22;14939;43.596;1.320;2023-04-15T12:26:46;14.30;60.20
27506;DHT22;14939;43.596;1.320;2023-04-15T12:29:14;14.30;62.50
27506;DHT22;14939;43.596;1.320;2023-04-15T12:31:49;14.50;65.00
27506;DHT22;14939;43.596;1.320;2023-04-15T12:34:31;14.70;63.70
27506;DHT22;14939;43.596;1.320;2023-04-15T12:37:00;14.50;61.10
27506;DHT22;14939;43.596;1.320;2023-04-15T12:39:27;14.60;62.70
27506;DHT22;14939;43.596;1.320;2023-04-15T12:41:53;14.60;62.70
27506;DHT22;14939;43.596;1.320;2023-04-15T12:44:21;14.90;61.20
27506;DHT22;14939;43.596;1.320;2023-04-15T12:46:47;14.80;60.70
27506;DHT22;14939;43.596;1.320;2023-04-15T12:49:13;14.80;60.00
27506;DHT22;14939;43.596;1.320;2023-04-15T12:51:44;14.70;56.90
27506;DHT22;14939;43.596;1.320;2023-04-15T12:54:10;14.50;57.60
27506;DHT22;14939;43.596;1.320;2023-04-15T12:56:36;14.40;59.30
27506;DHT22;14939;43.596;1.320;2023-04-15T12:59:01;14.60;59.90
27506;DHT22;14939;43.596;1.320;2023-04-15T13:01:27;14.80;58.10
27506;DHT22;14939;43.596;1.320;2023-04-15T13:03:53;14.80;54.50
27506;DHT22;14939;43.596;1.320;2023-04-15T13:06:19;14.70;55.10
27506;DHT22;14939;43.596;1.320;2023-04-15T13:08:44;14.40;56.80
27506;DHT22;14939;43.596;1.320;2023-04-15T13:11:10;14.40;57.40
27506;DHT22;14939;43.596;1.320;2023-04-15T13:13:36;14.60;57.70
27506;DHT22;14939;43.596;1.320;2023-04-15T13:16:02;14.90;57.70
27506;DHT22;14939;43.596;1.320;2023-04-15T13:18:27;15.10;59.10
27506;DHT22;14939;43.596;1.320;2023-04-15T13:20:55;14.90;57.60
27506;DHT22;14939;43.596;1.320;2023-04-15T13:23:21;14.90;58.50
27506;DHT22;14939;43.596;1.320;2023-04-15T13:25:47;15.00;51.10
27506;DHT22;14939;43.596;1.320;2023-04-15T13:28:12;15.10;51.90
27506;DHT22;14939;43.596;1.320;2023-04-15T13:30:38;15.20;52.90
27506;DHT22;14939;43.596;1.320;2023-04-15T13:33:04;15.10;54.60
27506;DHT22;14939;43.596;1.320;2023-04-15T13:35:31;14.90;55.80
27506;DHT22;14939;43.596;1.320;2023-04-15T13:37:57;15.00;51.50
27506;DHT22;14939;43.596;1.320;2023-04-15T13:40:23;15.00;51.20
27506;DHT22;14939;43.596;1.320;2023-04-15T13:42:49;15.00;51.90
27506;DHT22;14939;43.596;1.320;2023-04-15T13:45:16;15.30;52.10
27506;DHT22;14939;43.596;1.320;2023-04-15T13:47:42;15.70;52.80
27506;DHT22;14939;43.596;1.320;2023-04-15T13:50:08;15.90;53.20
27506;DHT22;14939;43.596;1.320;2023-04-15T13:52:33;15.80;50.30
27506;DHT22;14939;43.596;1.320;2023-04-15T13:54:59;15.80;50.30
27506;DHT22;14939;43.596;1.320;2023-04-15T13:57:25;16.00;51.30
27506;DHT22;14939;43.596;1.320;2023-04-15T13:59:51;16.30;49.70
27506;DHT22;14939;43.596;1.320;2023-04-15T14:02:17;16.20;51.10
27506;DHT22;14939;43.596;1.320;2023-04-15T14:04:42;16.00;50.30
27506;DHT22;14939;43.596;1.320;2023-04-15T14:07:08;16.30;50.60
27506;DHT22;14939;43.596;1.320;2023-04-15T14:09:34;16.00;50.10
27506;DHT22;14939;43.596;1.320;2023-04-15T14:11:59;16.00;49.10
27506;DHT22;14939;43.596;1.320;2023-04-15T14:14:26;15.70;49.10
27506;DHT22;14939;43.596;1.320;2023-04-15T14:16:53;16.00;50.10
27506;DHT22;14939;43.596;1.320;2023-04-15T14:19:19;16.20;51.10
27506;DHT22;14939;43.596;1.320;2023-04-15T14:21:45;16.10;49.90
27506;DHT22;14939;43.596;1.320;2023-04-15T14:24:10;16.10;48.40
27506;DHT22;14939;43.596;1.320;2023-04-15T14:26:36;16.00;48.20
27506;DHT22;14939;43.596;1.320;2023-04-15T14:29:02;16.00;47.20
27506;DHT22;14939;43.596;1.320;2023-04-15T14:31:27;15.80;47.70
27506;DHT22;14939;43.596;1.320;2023-04-15T14:33:53;15.60;46.80
27506;DHT22;14939;43.596;1.320;2023-04-15T14:36:19;15.70;49.30
27506;DHT22;14939;43.596;1.320;2023-04-15T14:38:44;17.80;46.10
27506;DHT22;14939;43.596;1.320;2023-04-15T14:41:10;18.90;43.10
27506;DHT22;14939;43.596;1.320;2023-04-15T14:43:36;18.00;39.60
27506;DHT22;14939;43.596;1.320;2023-04-15T14:46:02;16.40;41.10
27506;DHT22;14939;43.596;1.320;2023-04-15T14:48:30;16.50;42.70
27506;DHT22;14939;43.596;1.320;2023-04-15T14:50:56;17.00;42.60
27506;DHT22;14939;43.596;1.320;2023-04-15T14:53:22;17.10;41.30
27506;DHT22;14939;43.596;1.320;2023-04-15T14:55:48;17.40;40.40
27506;DHT22;14939;43.596;1.320;2023-04-15T14:58:13;16.90;41.10
27506;DHT22;14939;43.596;1.320;2023-04-15T15:00:39;16.50;44.10
27506;DHT22;14939;43.596;1.320;2023-04-15T15:03:08;17.00;42.10
27506;DHT22;14939;43.596;1.320;2023-04-15T15:05:44;17.50;40.00
27506;DHT22;14939;43.596;1.320;2023-04-15T15:08:12;17.40;42.00
27506;DHT22;14939;43.596;1.320;2023-04-15T15:10:39;16.20;43.20
27506;DHT22;14939;43.596;1.320;2023-04-15T15:13:09;15.70;44.50
27506;DHT22;14939;43.596;1.320;2023-04-15T15:15:36;15.70;45.00
27506;DHT22;14939;43.596;1.320;2023-04-15T15:18:03;15.60;46.00
27506;DHT22;14939;43.596;1.320;2023-04-15T15:20:29;15.70;46.70
27506;DHT22;14939;43.596;1.320;2023-04-15T15:22:55;15.30;46.10
27506;DHT22;14939;43.596;1.320;2023-04-15T15:25:21;15.10;46.20
27506;DHT22;14939;43.596;1.320;2023-04-15T15:27:47;14.90;47.00
27506;DHT22;14939;43.596;1.320;2023-04-15T15:30:13;14.80;48.40
27506;DHT22;14939;43.596;1.320;2023-04-15T15:32:40;14.80;49.50
27506;DHT22;14939;43.596;1.320;2023-04-15T15:35:06;14.60;49.80
27506;DHT22;14939;43.596;1.320;2023-04-15T15:37:32;14.60;50.40
27506;DHT22;14939;43.596;1.320;2023-04-15T15:39:59;14.50;50.50
27506;DHT22;14939;43.596;1.320;2023-04-15T15:42:25;14.40;50.60
27506;DHT22;14939;43.596;1.320;2023-04-15T15:44:51;14.30;50.90
27506;DHT22;14939;43.596;1.320;2023-04-15T15:47:21;14.30;50.50
27506;DHT22;14939;43.596;1.320;2023-04-15T15:49:46;14.20;51.40